createdAt,value
2017-06-14T00:00:37.840Z,1015.72
2017-06-14T00:01:37.882Z,1015.75
2017-06-14T00:02:37.936Z,1015.75
2017-06-14T00:03:37.971Z,1015.74
2017-06-14T00:04:37.978Z,1015.71
2017-06-14T00:05:38.029Z,1015.72
2017-06-14T00:06:38.047Z,1015.66
2017-06-14T00:07:38.103Z,1015.72
2017-06-14T00:08:38.137Z,1015.69
2017-06-14T00:09:38.146Z,1015.7
2017-06-14T00:10:38.203Z,1015.69
2017-06-14T00:11:38.212Z,1015.69
2017-06-14T00:12:38.268Z,1015.77
2017-06-14T00:13:38.280Z,1015.74
2017-06-14T00:14:38.335Z,1015.75
2017-06-14T00:15:38.348Z,1015.71
2017-06-14T00:16:38.383Z,1015.74
2017-06-14T00:17:38.412Z,1015.77
2017-06-14T00:18:38.446Z,1015.77
2017-06-14T00:19:38.465Z,1015.7
2017-06-14T00:20:38.513Z,1015.74
2017-06-14T00:21:38.568Z,1015.74
2017-06-14T00:22:38.584Z,1015.73
2017-06-14T00:23:38.611Z,1015.78
2017-06-14T00:24:38.647Z,1015.76
2017-06-14T00:25:38.680Z,1015.78
2017-06-14T00:26:38.735Z,1015.75
2017-06-14T00:27:38.747Z,1015.76
2017-06-14T00:28:38.799Z,1015.81
2017-06-14T00:29:38.822Z,1015.82
2017-06-14T00:30:38.868Z,1015.82
2017-06-14T00:31:38.882Z,1015.8
2017-06-14T00:32:38.929Z,1015.86
2017-06-14T00:33:38.945Z,1015.82
2017-06-14T00:34:38.984Z,1015.83
2017-06-14T00:35:39.033Z,1015.81
2017-06-14T00:36:39.064Z,1015.82
2017-06-14T00:37:39.102Z,1015.75
2017-06-14T00:38:39.113Z,1015.78
2017-06-14T00:39:39.169Z,1015.77
2017-06-14T00:40:39.198Z,1015.75
2017-06-14T00:41:39.214Z,1015.75
2017-06-14T00:42:39.245Z,1015.73
2017-06-14T00:43:39.279Z,1015.73
2017-06-14T00:44:39.312Z,1015.76
2017-06-14T00:45:39.364Z,1015.79
2017-06-14T00:46:39.399Z,1015.77
2017-06-14T00:47:39.410Z,1015.75
2017-06-14T00:48:39.438Z,1015.83
2017-06-14T00:49:39.503Z,1015.83
2017-06-14T00:50:39.512Z,1015.86
2017-06-14T00:51:39.542Z,1015.84
2017-06-14T00:52:39.598Z,1015.86
2017-06-14T00:53:39.595Z,1015.83
2017-06-14T00:54:39.641Z,1015.84
2017-06-14T00:55:39.674Z,1015.88
2017-06-14T00:56:39.706Z,1015.85
2017-06-14T00:57:39.741Z,1015.84
2017-06-14T00:58:39.775Z,1015.86
2017-06-14T00:59:39.808Z,1015.82
2017-06-14T01:01:39.885Z,1015.81
2017-06-14T01:02:39.922Z,1015.83
2017-06-14T01:03:39.942Z,1015.83
2017-06-14T01:04:40.019Z,1015.8
2017-06-14T01:05:40.017Z,1015.8
2017-06-14T01:06:40.060Z,1015.81
2017-06-14T01:07:40.084Z,1015.82
2017-06-14T01:08:40.118Z,1015.84
2017-06-14T01:09:40.148Z,1015.87
2017-06-14T01:10:40.186Z,1015.86
2017-06-14T01:11:40.211Z,1015.82
2017-06-14T01:12:40.253Z,1015.8
2017-06-14T01:13:40.282Z,1015.81
2017-06-14T01:14:40.313Z,1015.78
2017-06-14T01:15:40.354Z,1015.81
2017-06-14T01:16:40.386Z,1015.81
2017-06-14T01:17:40.412Z,1015.79
2017-06-14T01:18:40.447Z,1015.75
2017-06-14T01:19:40.488Z,1015.77
2017-06-14T01:20:40.514Z,1015.76
2017-06-14T01:21:40.553Z,1015.81
2017-06-14T01:22:40.582Z,1015.79
2017-06-14T01:23:40.613Z,1015.79
2017-06-14T01:24:40.659Z,1015.72
2017-06-14T01:25:40.671Z,1015.77
2017-06-14T01:26:40.700Z,1015.71
2017-06-14T01:27:40.739Z,1015.7
2017-06-14T01:28:40.778Z,1015.71
2017-06-14T01:29:40.815Z,1015.7
2017-06-14T01:30:40.844Z,1015.81
2017-06-14T01:31:40.879Z,1015.81
2017-06-14T01:32:40.926Z,1015.77
2017-06-14T01:33:40.947Z,1015.71
2017-06-14T01:34:40.977Z,1015.73
2017-06-14T01:35:41.010Z,1015.73
2017-06-14T01:36:41.043Z,1015.77
2017-06-14T01:37:41.065Z,1015.74
2017-06-14T01:38:41.111Z,1015.77
2017-06-14T01:39:41.141Z,1015.74
2017-06-14T01:40:41.179Z,1015.73
2017-06-14T01:41:41.201Z,1015.72
2017-06-14T01:42:41.238Z,1015.74
2017-06-14T01:43:41.277Z,1015.73
2017-06-14T01:44:41.299Z,1015.75
2017-06-14T01:45:41.338Z,1015.71
2017-06-14T01:46:41.383Z,1015.72
2017-06-14T01:47:41.398Z,1015.71
2017-06-14T01:48:41.442Z,1015.72
2017-06-14T01:49:41.461Z,1015.67
2017-06-14T01:50:41.502Z,1015.69
2017-06-14T01:51:41.524Z,1015.66
2017-06-14T01:52:41.566Z,1015.66
2017-06-14T01:53:41.596Z,1015.66
2017-06-14T01:54:41.639Z,1015.65
2017-06-14T01:55:41.657Z,1015.62
2017-06-14T01:56:41.688Z,1015.64
2017-06-14T01:57:41.724Z,1015.67
2017-06-14T01:58:41.760Z,1015.66
2017-06-14T01:59:41.786Z,1015.63
2017-06-14T02:00:41.851Z,1015.62
2017-06-14T02:01:41.855Z,1015.64
2017-06-14T02:02:41.902Z,1015.59
2017-06-14T02:03:41.919Z,1015.59
2017-06-14T02:04:41.961Z,1015.6
2017-06-14T02:05:42.012Z,1015.57
2017-06-14T02:06:42.021Z,1015.55
2017-06-14T02:07:42.060Z,1015.55
2017-06-14T02:08:42.093Z,1015.5
2017-06-14T02:09:42.132Z,1015.54
2017-06-14T02:10:42.154Z,1015.56
2017-06-14T02:11:42.192Z,1015.56
2017-06-14T02:12:42.212Z,1015.58
2017-06-14T02:13:42.262Z,1015.6
2017-06-14T02:14:42.288Z,1015.62
2017-06-14T02:15:42.327Z,1015.63
2017-06-14T02:16:42.346Z,1015.66
2017-06-14T02:17:42.420Z,1015.64
2017-06-14T02:18:42.406Z,1015.62
2017-06-14T02:19:42.444Z,1015.65
2017-06-14T02:20:42.477Z,1015.64
2017-06-14T02:21:42.513Z,1015.66
2017-06-14T02:22:42.544Z,1015.67
2017-06-14T02:23:42.583Z,1015.7
2017-06-14T02:24:42.607Z,1015.68
2017-06-14T02:25:42.641Z,1015.77
2017-06-14T02:26:42.686Z,1015.75
2017-06-14T02:27:42.713Z,1015.74
2017-06-14T02:28:42.746Z,1015.76
2017-06-14T02:29:42.814Z,1015.73
2017-06-14T02:30:42.802Z,1015.82
2017-06-14T02:31:42.845Z,1015.78
2017-06-14T02:32:42.880Z,1015.79
2017-06-14T02:33:42.916Z,1015.79
2017-06-14T02:34:42.934Z,1015.76
2017-06-14T02:35:42.981Z,1015.78
2017-06-14T02:36:42.993Z,1015.77
2017-06-14T02:37:43.027Z,1015.84
2017-06-14T02:38:43.082Z,1015.83
2017-06-14T02:39:43.097Z,1015.87
2017-06-14T02:40:43.146Z,1015.9
2017-06-14T02:41:43.178Z,1015.92
2017-06-14T02:42:43.192Z,1015.88
2017-06-14T02:43:43.245Z,1015.93
2017-06-14T02:44:43.274Z,1015.92
2017-06-14T02:45:43.286Z,1015.91
2017-06-14T02:46:43.341Z,1015.93
2017-06-14T02:47:43.351Z,1015.9
2017-06-14T02:48:43.405Z,1015.96
2017-06-14T02:49:43.438Z,1015.91
2017-06-14T02:50:43.450Z,1015.92
2017-06-14T02:51:43.502Z,1015.89
2017-06-14T02:52:43.514Z,1015.92
2017-06-14T02:53:43.548Z,1015.91
2017-06-14T02:54:43.604Z,1015.88
2017-06-14T02:55:43.633Z,1015.93
2017-06-14T02:56:43.668Z,1015.98
2017-06-14T02:57:43.676Z,1015.98
2017-06-14T02:58:43.709Z,1015.99
2017-06-14T02:59:43.740Z,1016.02
2017-06-14T03:00:43.777Z,1016.04
2017-06-14T03:01:43.808Z,1016.06
2017-06-14T03:02:43.860Z,1016.04
2017-06-14T03:03:51.056Z,1016.04
2017-06-14T03:04:43.903Z,1016.06
2017-06-14T03:05:43.944Z,1016.06
2017-06-14T03:06:43.973Z,1016.07
2017-06-14T03:07:44.003Z,1016.1
2017-06-14T03:08:44.036Z,1016.09
2017-06-14T03:09:44.093Z,1016.13
2017-06-14T03:10:44.104Z,1016.14
2017-06-14T03:11:44.153Z,1016.15
2017-06-14T03:12:44.187Z,1016.19
2017-06-14T03:13:44.195Z,1016.16
2017-06-14T03:14:44.229Z,1016.18
2017-06-14T03:15:44.263Z,1016.19
2017-06-14T03:16:44.311Z,1016.17
2017-06-14T03:17:44.326Z,1016.21
2017-06-14T03:18:44.385Z,1016.19
2017-06-14T03:19:44.414Z,1016.2
2017-06-14T03:20:44.424Z,1016.26
2017-06-14T03:21:44.481Z,1016.25
2017-06-14T03:22:44.491Z,1016.27
2017-06-14T03:23:44.518Z,1016.22
2017-06-14T03:24:44.552Z,1016.2
2017-06-14T03:25:44.611Z,1016.23
2017-06-14T03:26:44.620Z,1016.27
2017-06-14T03:27:44.649Z,1016.29
2017-06-14T03:28:44.686Z,1016.31
2017-06-14T03:29:44.719Z,1016.29
2017-06-14T03:30:44.748Z,1016.26
2017-06-14T03:31:44.783Z,1016.29
2017-06-14T03:32:44.816Z,1016.26
2017-06-14T03:33:44.845Z,1016.32
2017-06-14T03:34:44.878Z,1016.27
2017-06-14T03:35:44.915Z,1016.26
2017-06-14T03:36:44.967Z,1016.28
2017-06-14T03:37:44.998Z,1016.31
2017-06-14T03:38:45.011Z,1016.32
2017-06-14T03:39:45.063Z,1016.27
2017-06-14T03:40:45.096Z,1016.28
2017-06-14T03:41:45.108Z,1016.32
2017-06-14T03:42:45.162Z,1016.36
2017-06-14T03:43:45.195Z,1016.38
2017-06-14T03:44:45.205Z,1016.39
2017-06-14T03:45:45.261Z,1016.33
2017-06-14T03:46:45.279Z,1016.35
2017-06-14T03:47:45.326Z,1016.35
2017-06-14T03:48:45.338Z,1016.36
2017-06-14T03:49:45.366Z,1016.35
2017-06-14T03:50:45.405Z,1016.41
2017-06-14T03:51:45.429Z,1016.46
2017-06-14T03:52:45.468Z,1016.46
2017-06-14T03:53:45.499Z,1016.41
2017-06-14T03:54:45.518Z,1016.45
2017-06-14T03:55:45.563Z,1016.41
2017-06-14T03:56:45.595Z,1016.41
2017-06-14T03:57:45.625Z,1016.42
2017-06-14T03:58:45.663Z,1016.51
2017-06-14T03:59:45.717Z,1016.49
2017-06-14T04:00:45.708Z,1016.43
2017-06-14T04:01:45.758Z,1016.44
2017-06-14T04:02:45.814Z,1016.44
2017-06-14T04:03:45.823Z,1016.38
2017-06-14T04:04:45.876Z,1016.42
2017-06-14T04:05:45.898Z,1016.47
2017-06-14T04:06:45.925Z,1016.44
2017-06-14T04:07:45.954Z,1016.48
2017-06-14T04:08:46.008Z,1016.57
2017-06-14T04:09:46.017Z,1016.63
2017-06-14T04:10:46.055Z,1016.63
2017-06-14T04:11:46.105Z,1016.73
2017-06-14T04:12:46.120Z,1016.95
2017-06-14T04:13:46.174Z,1017.1
2017-06-14T04:14:46.203Z,1017.18
2017-06-14T04:15:46.221Z,1017.26
2017-06-14T04:16:46.248Z,1017.18
2017-06-14T04:17:46.280Z,1017.07
2017-06-14T04:18:46.339Z,1017.08
2017-06-14T04:19:46.350Z,1017.09
2017-06-14T04:20:46.406Z,1017.06
2017-06-14T04:21:46.442Z,1017.16
2017-06-14T04:22:46.455Z,1017.43
2017-06-14T04:23:46.508Z,1017.64
2017-06-14T04:24:46.525Z,1017.67
2017-06-14T04:25:46.579Z,1017.81
2017-06-14T04:26:46.593Z,1017.89
2017-06-14T04:27:46.632Z,1017.88
2017-06-14T04:28:46.661Z,1017.35
2017-06-14T04:29:46.699Z,1017.81
2017-06-14T04:30:46.736Z,1017.66
2017-06-14T04:31:46.774Z,1017.17
2017-06-14T04:32:46.836Z,1016.78
2017-06-14T04:33:46.843Z,1016.87
2017-06-14T04:34:46.902Z,1016.92
2017-06-14T04:35:46.915Z,1016.9
2017-06-14T04:36:46.977Z,1016.91
2017-06-14T04:37:46.988Z,1016.94
2017-06-14T04:38:47.026Z,1016.96
2017-06-14T04:39:47.065Z,1016.94
2017-06-14T04:40:47.102Z,1017.02
2017-06-14T04:41:47.161Z,1017
2017-06-14T04:42:47.173Z,1017.24
2017-06-14T04:43:47.215Z,1017.27
2017-06-14T04:44:47.248Z,1018.09
2017-06-14T04:45:47.306Z,1018.12
2017-06-14T04:46:47.322Z,1017.44
2017-06-14T04:47:47.360Z,1017.36
2017-06-14T04:48:47.394Z,1017.15
2017-06-14T04:49:47.453Z,1017.37
2017-06-14T04:50:47.474Z,1017.05
2017-06-14T04:51:47.502Z,1017.16
2017-06-14T04:52:47.529Z,1017.14
2017-06-14T04:53:47.579Z,1017.02
2017-06-14T04:54:47.617Z,1016.96
2017-06-14T04:55:47.674Z,1017
2017-06-14T04:56:47.689Z,1017.04
2017-06-14T04:57:47.731Z,1017.09
2017-06-14T04:58:47.783Z,1017.16
2017-06-14T04:59:47.802Z,1017.21
2017-06-14T05:00:47.837Z,1017.29
2017-06-14T05:01:47.897Z,1017.25
2017-06-14T05:02:47.912Z,1017.19
2017-06-14T05:03:47.953Z,1017.25
2017-06-14T05:04:47.982Z,1017.31
2017-06-14T05:05:48.040Z,1017.35
2017-06-14T05:06:48.077Z,1017.32
2017-06-14T05:07:48.114Z,1017.36
2017-06-14T05:08:48.128Z,1017.39
2017-06-14T05:09:48.168Z,1017.2
2017-06-14T05:10:48.205Z,1017.3
2017-06-14T05:11:48.240Z,1017.39
2017-06-14T05:12:48.278Z,1017.42
2017-06-14T05:13:48.431Z,1017.37
2017-06-14T05:14:48.356Z,1017.48
2017-06-14T05:15:48.388Z,1017.58
2017-06-14T05:16:48.445Z,1017.42
2017-06-14T05:17:48.451Z,1017.43
2017-06-14T05:18:48.498Z,1017.32
2017-06-14T05:19:48.535Z,1017.34
2017-06-14T05:20:48.574Z,1017.28
2017-06-14T05:21:48.611Z,1017.3
2017-06-14T05:22:48.669Z,1017.42
2017-06-14T05:23:48.689Z,1017.29
2017-06-14T05:24:48.723Z,1017.36
2017-06-14T05:25:48.762Z,1017.35
2017-06-14T05:26:48.819Z,1017.27
2017-06-14T05:27:48.859Z,1017.3
2017-06-14T05:28:48.893Z,1017.29
2017-06-14T05:29:48.933Z,1017.31
2017-06-14T05:30:48.971Z,1017.27
2017-06-14T05:31:48.991Z,1017.24
2017-06-14T05:32:49.012Z,1017.21
2017-06-14T05:33:49.062Z,1017.26
2017-06-14T05:34:49.097Z,1017.25
2017-06-14T05:35:49.134Z,1017.28
2017-06-14T05:36:49.191Z,1017.26
2017-06-14T05:37:49.215Z,1017.3
2017-06-14T05:38:49.235Z,1017.28
2017-06-14T05:39:49.304Z,1017.31
2017-06-14T05:40:49.323Z,1017.27
2017-06-14T05:41:49.381Z,1017.26
2017-06-14T05:42:49.417Z,1017.23
2017-06-14T05:43:49.436Z,1017.24
2017-06-14T05:44:49.470Z,1017.25
2017-06-14T05:45:49.525Z,1017.24
2017-06-14T05:46:49.534Z,1017.3
2017-06-14T05:47:49.602Z,1017.33
2017-06-14T05:48:49.622Z,1017.25
2017-06-14T05:49:49.678Z,1017.29
2017-06-14T05:50:49.692Z,1017.29
2017-06-14T05:51:49.752Z,1017.32
2017-06-14T05:52:49.765Z,1017.22
2017-06-14T05:53:49.824Z,1017.25
2017-06-14T05:54:49.838Z,1017.23
2017-06-14T05:55:49.884Z,1017.2
2017-06-14T05:56:49.914Z,1017.2
2017-06-14T05:57:49.974Z,1017.2
2017-06-14T05:58:50.009Z,1017.24
2017-06-14T05:59:50.028Z,1017.23
2017-06-14T06:00:50.063Z,1017.23
2017-06-14T06:01:50.103Z,1017.22
2017-06-14T06:02:50.140Z,1017.28
2017-06-14T06:03:50.221Z,1017.24
2017-06-14T06:04:50.235Z,1017.31
2017-06-14T06:05:50.248Z,1017.37
2017-06-14T06:06:50.305Z,1017.38
2017-06-14T06:07:50.324Z,1017.42
2017-06-14T06:08:50.382Z,1017.45
2017-06-14T06:09:50.418Z,1017.47
2017-06-14T06:10:50.434Z,1017.46
2017-06-14T06:11:50.469Z,1017.6
2017-06-14T06:12:50.506Z,1017.54
2017-06-14T06:13:50.567Z,1017.58
2017-06-14T06:14:50.584Z,1017.53
2017-06-14T06:15:50.626Z,1017.49
2017-06-14T06:16:50.658Z,1017.56
2017-06-14T06:17:50.698Z,1017.58
2017-06-14T06:18:50.759Z,1017.51
2017-06-14T06:19:50.795Z,1017.55
2017-06-14T06:20:50.841Z,1017.47
2017-06-14T06:21:50.853Z,1017.45
2017-06-14T06:22:50.915Z,1017.41
2017-06-14T06:23:50.930Z,1017.48
2017-06-14T06:24:50.979Z,1017.42
2017-06-14T06:25:51.037Z,1017.54
2017-06-14T06:26:51.056Z,1017.52
2017-06-14T06:27:51.085Z,1017.44
2017-06-14T06:28:51.134Z,1017.45
2017-06-14T06:29:51.173Z,1017.43
2017-06-14T06:30:51.219Z,1017.28
2017-06-14T06:31:51.258Z,1017.4
2017-06-14T06:32:51.298Z,1017.4
2017-06-14T06:33:51.334Z,1017.45
2017-06-14T06:34:51.404Z,1017.44
2017-06-14T06:35:51.426Z,1017.45
2017-06-14T06:36:51.469Z,1017.41
2017-06-14T06:37:51.533Z,1017.43
2017-06-14T06:38:51.544Z,1017.41
2017-06-14T06:39:51.598Z,1017.45
2017-06-14T06:40:51.648Z,1017.4
2017-06-14T06:41:51.705Z,1017.39
2017-06-14T06:42:51.730Z,1017.43
2017-06-14T06:43:51.791Z,1017.46
2017-06-14T06:44:51.813Z,1017.57
2017-06-14T06:45:51.855Z,1017.56
2017-06-14T06:46:51.894Z,1017.6
2017-06-14T06:47:51.934Z,1017.64
2017-06-14T06:48:52.005Z,1017.59
2017-06-14T06:49:52.031Z,1017.61
2017-06-14T06:50:52.099Z,1017.66
2017-06-14T06:51:52.135Z,1017.67
2017-06-14T06:52:52.157Z,1017.66
2017-06-14T06:53:52.207Z,1017.62
2017-06-14T06:54:52.247Z,1017.65
2017-06-14T06:55:52.292Z,1017.68
2017-06-14T06:56:52.330Z,1017.67
2017-06-14T06:57:52.379Z,1017.79
2017-06-14T06:58:52.428Z,1017.63
2017-06-14T06:59:52.470Z,1017.71
2017-06-14T07:00:52.537Z,1017.71
2017-06-14T07:01:52.561Z,1017.72
2017-06-14T07:02:52.606Z,1017.73
2017-06-14T07:03:52.673Z,1017.73
2017-06-14T07:04:52.693Z,1017.75
2017-06-14T07:05:52.724Z,1017.76
2017-06-14T07:06:52.785Z,1017.76
2017-06-14T07:07:52.846Z,1017.74
2017-06-14T07:08:52.897Z,1017.77
2017-06-14T07:09:52.943Z,1017.82
2017-06-14T07:10:52.965Z,1017.79
2017-06-14T07:11:53.036Z,1017.77
2017-06-14T07:12:53.055Z,1017.89
2017-06-14T07:13:53.122Z,1017.82
2017-06-14T07:14:53.134Z,1017.78
2017-06-14T07:15:53.216Z,1017.92
2017-06-14T07:16:53.236Z,1017.59
2017-06-14T07:17:53.288Z,1017.44
2017-06-14T07:18:53.331Z,1017.99
2017-06-14T07:19:53.451Z,1017.47
2017-06-14T07:20:53.415Z,1018
2017-06-14T07:21:53.469Z,1018.06
2017-06-14T07:22:53.509Z,1017.5
2017-06-14T07:23:53.578Z,1017.45
2017-06-14T07:24:53.605Z,1018.14
2017-06-14T07:25:53.668Z,1017.51
2017-06-14T07:26:53.692Z,1017.9
2017-06-14T07:27:53.738Z,1018.1
2017-06-14T07:28:53.789Z,1017.49
2017-06-14T07:29:53.829Z,1017.48
2017-06-14T07:30:53.872Z,1018.19
2017-06-14T07:31:53.936Z,1018.15
2017-06-14T07:32:53.959Z,1017.5
2017-06-14T07:33:54.003Z,1017.68
2017-06-14T07:34:54.051Z,1017.52
2017-06-14T07:35:54.095Z,1017.5
2017-06-14T07:36:54.138Z,1017.99
2017-06-14T07:37:54.200Z,1017.85
2017-06-14T07:38:54.249Z,1018.21
2017-06-14T07:39:54.271Z,1018.2
2017-06-14T07:40:54.314Z,1017.58
2017-06-14T07:41:54.359Z,1018.11
2017-06-14T07:42:54.401Z,1018.11
2017-06-14T07:43:54.472Z,1018.03
2017-06-14T07:44:54.488Z,1018.05
2017-06-14T07:45:54.536Z,1018.05
2017-06-14T07:46:54.576Z,1017.59
2017-06-14T07:47:54.626Z,1018.11
2017-06-14T07:48:54.691Z,1017.61
2017-06-14T07:49:54.712Z,1018.09
2017-06-14T07:50:54.777Z,1017.5
2017-06-14T07:51:54.806Z,1017.57
2017-06-14T07:52:54.834Z,1017.53
2017-06-14T07:53:54.914Z,1017.55
2017-06-14T07:54:54.959Z,1017.57
2017-06-14T07:55:55.005Z,1017.7
2017-06-14T07:56:55.029Z,1018.45
2017-06-14T07:57:55.072Z,1017.69
2017-06-14T07:58:55.138Z,1018.4
2017-06-14T07:59:55.156Z,1017.64
2017-06-14T08:00:55.202Z,1017.67
2017-06-14T08:01:55.241Z,1017.68
2017-06-14T08:02:55.289Z,1017.71
2017-06-14T08:03:55.361Z,1017.71
2017-06-14T08:04:55.393Z,1017.75
2017-06-14T08:05:55.439Z,1017.78
2017-06-14T08:06:55.464Z,1018.31
2017-06-14T08:07:55.502Z,1017.84
2017-06-14T08:08:55.543Z,1017.77
2017-06-14T08:09:55.612Z,1017.87
2017-06-14T08:10:55.631Z,1018.68
2017-06-14T08:11:55.672Z,1018.45
2017-06-14T08:12:55.715Z,1018.71
2017-06-14T08:13:55.776Z,1018.51
2017-06-14T08:14:55.801Z,1018.7
2017-06-14T08:15:55.842Z,1018.73
2017-06-14T08:16:55.884Z,1018.32
2017-06-14T08:17:55.932Z,1018.24
2017-06-14T08:18:55.993Z,1017.76
2017-06-14T08:19:56.036Z,1018.1
2017-06-14T08:20:56.056Z,1018.57
2017-06-14T08:21:56.101Z,1018.71
2017-06-14T08:22:56.137Z,1018.57
2017-06-14T08:23:56.212Z,1018.36
2017-06-14T08:24:56.237Z,1017.85
2017-06-14T08:25:56.301Z,1017.85
2017-06-14T08:26:56.324Z,1017.78
2017-06-14T08:27:56.366Z,1017.8
2017-06-14T08:28:56.433Z,1017.83
2017-06-14T08:29:56.443Z,1017.69
2017-06-14T08:30:56.500Z,1017.71
2017-06-14T08:31:56.542Z,1017.76
2017-06-14T08:32:56.609Z,1017.77
2017-06-14T08:33:56.651Z,1017.77
2017-06-14T08:34:56.671Z,1017.76
2017-06-14T08:35:56.718Z,1017.8
2017-06-14T08:36:56.743Z,1017.88
2017-06-14T08:37:56.801Z,1017.93
2017-06-14T08:38:56.871Z,1017.94
2017-06-14T08:39:56.873Z,1018.3
2017-06-14T08:40:56.926Z,1017.98
2017-06-14T08:41:56.992Z,1017.88
2017-06-14T08:42:57.012Z,1017.84
2017-06-14T08:43:57.050Z,1017.85
2017-06-14T08:44:57.094Z,1017.88
2017-06-14T08:45:57.157Z,1018.83
2017-06-14T08:46:57.199Z,1018.04
2017-06-14T08:47:57.240Z,1018.63
2017-06-14T08:48:57.256Z,1018.19
2017-06-14T08:49:57.302Z,1018.33
2017-06-14T08:50:57.349Z,1018.71
2017-06-14T08:51:57.386Z,1018.91
2017-06-14T08:52:57.431Z,1018.67
2017-06-14T08:53:57.473Z,1017.8
2017-06-14T08:54:57.534Z,1017.75
2017-06-14T08:55:57.580Z,1017.75
2017-06-14T08:56:57.597Z,1017.74
2017-06-14T08:57:57.638Z,1017.75
2017-06-14T08:58:57.706Z,1017.72
2017-06-14T08:59:57.754Z,1017.74
2017-06-14T09:01:00.758Z,1017.82
2017-06-14T09:01:57.835Z,1018.87
2017-06-14T09:02:57.838Z,1017.85
2017-06-14T09:03:57.920Z,1018.97
2017-06-14T09:04:57.961Z,1018.7
2017-06-14T09:05:58.003Z,1018.85
2017-06-14T09:06:58.026Z,1018.82
2017-06-14T09:07:58.065Z,1018.6
2017-06-14T09:08:58.109Z,1017.95
2017-06-14T09:09:58.139Z,1018.6
2017-06-14T09:10:58.220Z,1017.8
2017-06-14T09:11:58.241Z,1017.89
2017-06-14T09:12:58.286Z,1018.99
2017-06-14T09:13:58.356Z,1018.28
2017-06-14T09:14:58.401Z,1018.1
2017-06-14T09:15:58.423Z,1017.85
2017-06-14T09:16:58.486Z,1017.91
2017-06-14T09:17:58.531Z,1017.89
2017-06-14T09:18:58.553Z,1017.82
2017-06-14T09:19:58.619Z,1017.85
2017-06-14T09:20:58.642Z,1017.93
2017-06-14T09:21:58.687Z,1018.29
2017-06-14T09:22:58.751Z,1017.97
2017-06-14T09:23:58.795Z,1018.79
2017-06-14T09:24:58.802Z,1017.81
2017-06-14T09:25:58.860Z,1017.85
2017-06-14T09:26:58.904Z,1017.85
2017-06-14T09:27:58.965Z,1018.91
2017-06-14T09:28:58.993Z,1017.77
2017-06-14T09:29:59.033Z,1017.69
2017-06-14T09:30:59.073Z,1017.68
2017-06-14T09:31:59.116Z,1018.47
2017-06-14T09:32:59.151Z,1018.49
2017-06-14T09:33:59.228Z,1018.36
2017-06-14T09:34:59.266Z,1018.43
2017-06-14T09:35:59.318Z,1018.44
2017-06-14T09:36:59.356Z,1018.51
2017-06-14T09:37:59.404Z,1018.46
2017-06-14T09:38:59.449Z,1018.45
2017-06-14T09:39:59.505Z,1018.38
2017-06-14T09:40:59.518Z,1018.37
2017-06-14T09:41:59.554Z,1017.27
2017-06-14T09:42:59.611Z,1018.42
2017-06-14T09:43:59.658Z,1017.49
2017-06-14T09:44:59.727Z,1017.41
2017-06-14T09:45:59.755Z,1017.45
2017-06-14T09:46:59.801Z,1017.45
2017-06-14T09:47:59.842Z,1018.35
2017-06-14T09:48:59.891Z,1018.46
2017-06-14T09:49:59.966Z,1018.47
2017-06-14T09:50:59.981Z,1018.44
2017-06-14T09:52:00.025Z,1018.4
2017-06-14T09:53:00.099Z,1018.27
2017-06-14T09:54:00.119Z,1018.19
2017-06-14T09:55:00.166Z,1018.17
2017-06-14T09:56:00.238Z,1018.21
2017-06-14T09:57:00.265Z,1018.22
2017-06-14T09:58:00.333Z,1018.13
2017-06-14T09:59:00.379Z,1018.25
2017-06-14T10:00:00.453Z,1018.24
2017-06-14T10:01:09.859Z,1018.28
2017-06-14T10:02:00.705Z,1018.17
2017-06-14T10:03:00.559Z,1018.23
2017-06-14T10:04:00.624Z,1018.31
2017-06-14T10:05:00.651Z,1017.58
2017-06-14T10:06:00.701Z,1017.25
2017-06-14T10:07:00.755Z,1017.44
2017-06-14T10:08:00.820Z,1018.34
2017-06-14T10:09:00.874Z,1018.34
2017-06-14T10:10:00.893Z,1018.31
2017-06-14T10:11:00.971Z,1018.32
2017-06-14T10:12:00.995Z,1018.37
2017-06-14T10:13:01.051Z,1018.4
2017-06-14T10:14:01.119Z,1018.39
2017-06-14T10:15:01.142Z,1018.38
2017-06-14T10:16:01.221Z,1018.26
2017-06-14T10:17:01.267Z,1018.43
2017-06-14T10:18:01.313Z,1018.5
2017-06-14T10:19:01.363Z,1017.58
2017-06-14T10:20:01.390Z,1018.68
2017-06-14T10:21:01.463Z,1018.57
2017-06-14T10:22:01.508Z,1018.84
2017-06-14T10:23:01.539Z,1018.79
2017-06-14T10:24:01.587Z,1018.84
2017-06-14T10:25:01.658Z,1018.71
2017-06-14T10:26:01.686Z,1018.8
2017-06-14T10:27:01.730Z,1017.57
2017-06-14T10:28:01.783Z,1018.52
2017-06-14T10:29:01.828Z,1017.49
2017-06-14T10:30:01.866Z,1019.03
2017-06-14T10:31:01.992Z,1018.93
2017-06-14T10:32:01.969Z,1018.99
2017-06-14T10:33:02.042Z,1018.06
2017-06-14T10:34:02.085Z,1019.02
2017-06-14T10:35:02.110Z,1018.84
2017-06-14T10:36:02.158Z,1018.55
2017-06-14T10:37:02.233Z,1017.21
2017-06-14T10:38:02.250Z,1019.14
2017-06-14T10:39:02.317Z,1019.28
2017-06-14T10:40:02.341Z,1017.19
2017-06-14T10:41:02.409Z,1019.51
2017-06-14T10:42:02.458Z,1019.45
2017-06-14T10:43:02.500Z,1019.38
2017-06-14T10:44:02.543Z,1019.27
2017-06-14T10:45:02.565Z,1019.29
2017-06-14T10:46:02.617Z,1019.52
2017-06-14T10:47:02.645Z,1019.53
2017-06-14T10:48:02.703Z,1019.6
2017-06-14T10:49:02.749Z,1019.68
2017-06-14T10:50:02.813Z,1019.53
2017-06-14T10:51:02.834Z,1019.86
2017-06-14T10:52:02.901Z,1019.94
2017-06-14T10:53:02.923Z,1019.83
2017-06-14T10:54:02.964Z,1019.86
2017-06-14T10:55:03.015Z,1019.99
2017-06-14T10:56:03.056Z,1020.03
2017-06-14T10:57:03.096Z,1019.66
2017-06-14T10:58:03.144Z,1018.53
2017-06-14T10:59:03.173Z,1017.29
2017-06-14T11:00:03.249Z,1017.07
2017-06-14T11:01:03.268Z,1017.01
2017-06-14T11:02:03.312Z,1017.01
2017-06-14T11:03:03.561Z,1016.98
2017-06-14T11:04:03.397Z,1017.01
2017-06-14T11:05:03.440Z,1017.09
2017-06-14T11:06:03.505Z,1017.1
2017-06-14T11:07:03.547Z,1017.11
2017-06-14T11:08:03.570Z,1017.08
2017-06-14T11:09:03.614Z,1017.12
2017-06-14T11:10:03.657Z,1017.08
2017-06-14T11:11:03.707Z,1017.13
2017-06-14T11:12:03.736Z,1017.16
2017-06-14T11:13:03.777Z,1017.17
2017-06-14T11:14:03.842Z,1017.19
2017-06-14T11:15:03.865Z,1017.24
2017-06-14T11:16:03.899Z,1017.31
2017-06-14T11:17:03.951Z,1017.26
2017-06-14T11:18:04.207Z,1017.2
2017-06-14T11:19:04.047Z,1017.22
2017-06-14T11:20:04.097Z,1017.23
2017-06-14T11:21:04.130Z,1017.31
2017-06-14T11:22:04.166Z,1017.27
2017-06-14T11:23:04.188Z,1017.25
2017-06-14T11:24:04.231Z,1017.32
2017-06-14T11:25:04.488Z,1017.26
2017-06-14T11:26:04.339Z,1017.24
2017-06-14T11:27:04.356Z,1017.24
2017-06-14T11:28:04.433Z,1017.18
2017-06-14T11:29:04.459Z,1017.13
2017-06-14T11:30:04.492Z,1017.18
2017-06-14T11:31:04.540Z,1017.2
2017-06-14T11:32:04.559Z,1017.18
2017-06-14T11:33:04.622Z,1017.17
2017-06-14T11:34:04.644Z,1017.15
2017-06-14T11:35:04.684Z,1017.15
2017-06-14T11:36:04.747Z,1017.07
2017-06-14T11:37:04.790Z,1016.98
2017-06-14T11:38:04.824Z,1017.01
2017-06-14T11:39:04.847Z,1017.09
2017-06-14T11:40:04.890Z,1017.16
2017-06-14T11:41:04.925Z,1017.14
2017-06-14T11:42:04.970Z,1017.1
2017-06-14T11:43:05.011Z,1017.08
2017-06-14T11:44:05.058Z,1017.06
2017-06-14T11:45:05.086Z,1017.03
2017-06-14T11:46:05.133Z,1016.95
2017-06-14T11:47:05.170Z,1017.03
2017-06-14T11:48:05.213Z,1016.98
2017-06-14T11:49:05.256Z,1016.96
2017-06-14T11:50:05.296Z,1016.99
2017-06-14T11:51:05.356Z,1017.01
2017-06-14T11:52:05.397Z,1017.02
2017-06-14T11:53:05.397Z,1016.96
2017-06-14T11:54:05.451Z,1017.05
2017-06-14T11:55:05.492Z,1017.1
2017-06-14T11:56:05.535Z,1017.11
2017-06-14T11:57:05.571Z,1017.13
2017-06-14T11:58:05.687Z,1017.1
2017-06-14T11:59:05.652Z,1017.11
2017-06-14T12:00:05.691Z,1017.09
2017-06-14T12:01:05.744Z,1017.06
2017-06-14T12:02:05.772Z,1017.06
2017-06-14T12:03:05.835Z,1017.06
2017-06-14T12:04:05.873Z,1017.07
2017-06-14T12:05:05.883Z,1017.03
2017-06-14T12:06:05.936Z,1017.07
2017-06-14T12:07:05.970Z,1017.01
2017-06-14T12:08:06.029Z,1017.06
2017-06-14T12:09:06.046Z,1017.15
2017-06-14T12:10:06.081Z,1017.16